sensor_id;sensor_type;location;lat;lon;timestamp;P1;durP1;ratioP1;P2;durP2;ratioP2
13345;SDS011;6742;48.036;15.780;2023-04-05T00:00:02;5.27;;;2.33;;
13345;SDS011;6742;48.036;15.780;2023-04-05T00:02:33;4.17;;;2.20;;
13345;SDS011;6742;48.036;15.780;2023-04-05T00:05:01;3.57;;;2.50;;
13345;SDS011;6742;48.036;15.780;2023-04-05T00:07:29;3.47;;;2.43;;
13345;SDS011;6742;48.036;15.780;2023-04-05T00:09:58;2.93;;;2.37;;
13345;SDS011;6742;48.036;15.780;2023-04-05T00:12:25;4.73;;;2.43;;
13345;SDS011;6742;48.036;15.780;2023-04-05T00:14:52;2.97;;;2.20;;
13345;SDS011;6742;48.036;15.780;2023-04-05T00:17:19;2.57;;;2.37;;
13345;SDS011;6742;48.036;15.780;2023-04-05T00:19:46;4.43;;;2.43;;
13345;SDS011;6742;48.036;15.780;2023-04-05T00:22:15;4.50;;;2.47;;
13345;SDS011;6742;48.036;15.780;2023-04-05T00:24:45;3.63;;;2.40;;
13345;SDS011;6742;48.036;15.780;2023-04-05T00:27:14;3.40;;;2.40;;
13345;SDS011;6742;48.036;15.780;2023-04-05T00:29:41;3.37;;;2.60;;
13345;SDS011;6742;48.036;15.780;2023-04-05T00:32:08;4.47;;;2.40;;
13345;SDS011;6742;48.036;15.780;2023-04-05T00:34:35;2.97;;;2.10;;
13345;SDS011;6742;48.036;15.780;2023-04-05T00:37:02;3.25;;;2.30;;
13345;SDS011;6742;48.036;15.780;2023-04-05T00:39:29;4.20;;;2.40;;
13345;SDS011;6742;48.036;15.780;2023-04-05T00:41:58;3.80;;;2.33;;
13345;SDS011;6742;48.036;15.780;2023-04-05T00:44:27;3.10;;;2.30;;
13345;SDS011;6742;48.036;15.780;2023-04-05T00:46:58;3.03;;;2.50;;
13345;SDS011;6742;48.036;15.780;2023-04-05T00:49:27;3.53;;;2.43;;
13345;SDS011;6742;48.036;15.780;2023-04-05T00:51:55;4.60;;;2.30;;
13345;SDS011;6742;48.036;15.780;2023-04-05T00:54:22;4.30;;;2.50;;
13345;SDS011;6742;48.036;15.780;2023-04-05T00:56:49;4.00;;;2.93;;
13345;SDS011;6742;48.036;15.780;2023-04-05T00:59:19;3.73;;;2.57;;
13345;SDS011;6742;48.036;15.780;2023-04-05T01:01:46;4.37;;;2.80;;
13345;SDS011;6742;48.036;15.780;2023-04-05T01:04:20;4.23;;;2.70;;
13345;SDS011;6742;48.036;15.780;2023-04-05T01:06:57;3.97;;;2.70;;
13345;SDS011;6742;48.036;15.780;2023-04-05T01:09:36;4.40;;;2.80;;
13345;SDS011;6742;48.036;15.780;2023-04-05T01:12:08;4.93;;;2.80;;
13345;SDS011;6742;48.036;15.780;2023-04-05T01:14:45;5.75;;;2.95;;
13345;SDS011;6742;48.036;15.780;2023-04-05T01:17:14;4.27;;;2.50;;
13345;SDS011;6742;48.036;15.780;2023-04-05T01:19:46;5.13;;;2.87;;
13345;SDS011;6742;48.036;15.780;2023-04-05T01:22:20;4.07;;;2.57;;
13345;SDS011;6742;48.036;15.780;2023-04-05T01:25:17;3.80;;;2.30;;
13345;SDS011;6742;48.036;15.780;2023-04-05T01:28:03;4.07;;;2.80;;
13345;SDS011;6742;48.036;15.780;2023-04-05T01:31:02;15.53;;;8.27;;
13345;SDS011;6742;48.036;15.780;2023-04-05T01:33:34;8.03;;;4.07;;
13345;SDS011;6742;48.036;15.780;2023-04-05T01:36:09;3.60;;;2.70;;
13345;SDS011;6742;48.036;15.780;2023-04-05T01:38:41;3.93;;;2.37;;
13345;SDS011;6742;48.036;15.780;2023-04-05T01:41:11;3.40;;;2.40;;
13345;SDS011;6742;48.036;15.780;2023-04-05T01:43:38;3.63;;;2.43;;
13345;SDS011;6742;48.036;15.780;2023-04-05T01:46:07;4.73;;;2.50;;
13345;SDS011;6742;48.036;15.780;2023-04-05T01:48:34;4.10;;;2.43;;
13345;SDS011;6742;48.036;15.780;2023-04-05T01:51:00;3.40;;;2.23;;
13345;SDS011;6742;48.036;15.780;2023-04-05T01:53:29;3.63;;;2.07;;
13345;SDS011;6742;48.036;15.780;2023-04-05T01:55:58;3.53;;;2.67;;
13345;SDS011;6742;48.036;15.780;2023-04-05T01:58:25;2.73;;;2.17;;
13345;SDS011;6742;48.036;15.780;2023-04-05T02:00:52;4.90;;;2.70;;
13345;SDS011;6742;48.036;15.780;2023-04-05T02:03:21;3.40;;;2.60;;
13345;SDS011;6742;48.036;15.780;2023-04-05T02:05:48;3.87;;;2.63;;
13345;SDS011;6742;48.036;15.780;2023-04-05T02:08:16;2.57;;;2.23;;
13345;SDS011;6742;48.036;15.780;2023-04-05T02:10:43;3.87;;;2.43;;
13345;SDS011;6742;48.036;15.780;2023-04-05T02:13:10;3.87;;;2.40;;
13345;SDS011;6742;48.036;15.780;2023-04-05T02:15:37;4.50;;;2.47;;
13345;SDS011;6742;48.036;15.780;2023-04-05T02:18:05;7.00;;;2.63;;
13345;SDS011;6742;48.036;15.780;2023-04-05T02:20:34;4.07;;;2.33;;
13345;SDS011;6742;48.036;15.780;2023-04-05T02:23:01;3.43;;;2.30;;
13345;SDS011;6742;48.036;15.780;2023-04-05T02:25:29;4.27;;;2.57;;
13345;SDS011;6742;48.036;15.780;2023-04-05T02:27:58;3.53;;;2.80;;
13345;SDS011;6742;48.036;15.780;2023-04-05T02:30:25;2.90;;;2.33;;
13345;SDS011;6742;48.036;15.780;2023-04-05T02:32:53;3.30;;;2.57;;
13345;SDS011;6742;48.036;15.780;2023-04-05T02:35:21;3.13;;;2.63;;
13345;SDS011;6742;48.036;15.780;2023-04-05T02:37:49;3.10;;;2.20;;
13345;SDS011;6742;48.036;15.780;2023-04-05T02:40:16;3.00;;;2.37;;
13345;SDS011;6742;48.036;15.780;2023-04-05T02:42:43;3.97;;;2.67;;
13345;SDS011;6742;48.036;15.780;2023-04-05T02:45:10;3.07;;;2.70;;
13345;SDS011;6742;48.036;15.780;2023-04-05T02:47:37;4.03;;;2.80;;
13345;SDS011;6742;48.036;15.780;2023-04-05T02:50:05;5.60;;;2.90;;
13345;SDS011;6742;48.036;15.780;2023-04-05T02:52:32;4.77;;;3.03;;
13345;SDS011;6742;48.036;15.780;2023-04-05T02:55:03;3.73;;;2.80;;
13345;SDS011;6742;48.036;15.780;2023-04-05T02:57:30;3.53;;;2.57;;
13345;SDS011;6742;48.036;15.780;2023-04-05T02:59:57;4.40;;;2.70;;
13345;SDS011;6742;48.036;15.780;2023-04-05T03:02:24;3.40;;;2.50;;
13345;SDS011;6742;48.036;15.780;2023-04-05T03:04:51;4.20;;;2.97;;
13345;SDS011;6742;48.036;15.780;2023-04-05T03:07:18;3.77;;;2.80;;
13345;SDS011;6742;48.036;15.780;2023-04-05T03:09:46;7.77;;;3.00;;
13345;SDS011;6742;48.036;15.780;2023-04-05T03:12:14;3.17;;;2.60;;
13345;SDS011;6742;48.036;15.780;2023-04-05T03:14:41;4.67;;;3.10;;
13345;SDS011;6742;48.036;15.780;2023-04-05T03:17:10;4.57;;;3.17;;
13345;SDS011;6742;48.036;15.780;2023-04-05T03:19:37;4.17;;;3.33;;
13345;SDS011;6742;48.036;15.780;2023-04-05T03:22:04;4.53;;;3.40;;
13345;SDS011;6742;48.036;15.780;2023-04-05T03:24:31;6.77;;;4.00;;
13345;SDS011;6742;48.036;15.780;2023-04-05T03:27:00;4.93;;;3.47;;
13345;SDS011;6742;48.036;15.780;2023-04-05T03:29:31;5.07;;;3.93;;
13345;SDS011;6742;48.036;15.780;2023-04-05T03:31:58;5.37;;;3.67;;
13345;SDS011;6742;48.036;15.780;2023-04-05T03:34:25;5.57;;;3.40;;
13345;SDS011;6742;48.036;15.780;2023-04-05T03:36:53;4.07;;;3.17;;
13345;SDS011;6742;48.036;15.780;2023-04-05T03:39:20;3.77;;;3.33;;
13345;SDS011;6742;48.036;15.780;2023-04-05T03:41:47;4.47;;;3.23;;
13345;SDS011;6742;48.036;15.780;2023-04-05T03:44:13;3.80;;;3.40;;
13345;SDS011;6742;48.036;15.780;2023-04-05T03:46:42;6.23;;;3.50;;
13345;SDS011;6742;48.036;15.780;2023-04-05T03:49:12;5.03;;;3.70;;
13345;SDS011;6742;48.036;15.780;2023-04-05T03:51:40;4.63;;;3.07;;
13345;SDS011;6742;48.036;15.780;2023-04-05T03:54:07;3.63;;;3.00;;
13345;SDS011;6742;48.036;15.780;2023-04-05T03:56:34;4.27;;;3.10;;
13345;SDS011;6742;48.036;15.780;2023-04-05T03:59:01;4.63;;;2.90;;
13345;SDS011;6742;48.036;15.780;2023-04-05T04:01:28;4.50;;;3.23;;
13345;SDS011;6742;48.036;15.780;2023-04-05T04:03:56;4.37;;;3.23;;
13345;SDS011;6742;48.036;15.780;2023-04-05T04:06:24;6.13;;;3.53;;
13345;SDS011;6742;48.036;15.780;2023-04-05T04:08:51;5.23;;;3.40;;
13345;SDS011;6742;48.036;15.780;2023-04-05T04:11:18;4.10;;;2.93;;
13345;SDS011;6742;48.036;15.780;2023-04-05T04:13:45;6.40;;;3.50;;
13345;SDS011;6742;48.036;15.780;2023-04-05T04:16:12;7.50;;;3.57;;
13345;SDS011;6742;48.036;15.780;2023-04-05T04:18:40;7.17;;;3.70;;
13345;SDS011;6742;48.036;15.780;2023-04-05T04:21:08;5.93;;;3.83;;
13345;SDS011;6742;48.036;15.780;2023-04-05T04:23:36;4.67;;;3.37;;
13345;SDS011;6742;48.036;15.780;2023-04-05T04:26:03;6.93;;;3.73;;
13345;SDS011;6742;48.036;15.780;2023-04-05T04:28:30;4.50;;;3.60;;
13345;SDS011;6742;48.036;15.780;2023-04-05T04:30:58;5.43;;;3.37;;
13345;SDS011;6742;48.036;15.780;2023-04-05T04:33:29;6.00;;;3.80;;
13345;SDS011;6742;48.036;15.780;2023-04-05T04:35:58;6.23;;;3.83;;
13345;SDS011;6742;48.036;15.780;2023-04-05T04:38:28;4.33;;;3.40;;
13345;SDS011;6742;48.036;15.780;2023-04-05T04:40:58;7.67;;;3.97;;
13345;SDS011;6742;48.036;15.780;2023-04-05T04:43:27;5.37;;;3.40;;
13345;SDS011;6742;48.036;15.780;2023-04-05T04:45:57;6.07;;;3.30;;
13345;SDS011;6742;48.036;15.780;2023-04-05T04:48:24;5.90;;;3.50;;
13345;SDS011;6742;48.036;15.780;2023-04-05T04:50:51;5.27;;;3.30;;
13345;SDS011;6742;48.036;15.780;2023-04-05T04:53:18;5.37;;;3.37;;
13345;SDS011;6742;48.036;15.780;2023-04-05T04:55:47;5.73;;;3.73;;
13345;SDS011;6742;48.036;15.780;2023-04-05T04:58:15;6.13;;;3.77;;
13345;SDS011;6742;48.036;15.780;2023-04-05T05:00:42;5.67;;;3.47;;
13345;SDS011;6742;48.036;15.780;2023-04-05T05:03:09;5.77;;;3.60;;
13345;SDS011;6742;48.036;15.780;2023-04-05T05:05:40;5.93;;;3.40;;
13345;SDS011;6742;48.036;15.780;2023-04-05T05:08:08;6.27;;;3.47;;
13345;SDS011;6742;48.036;15.780;2023-04-05T05:10:35;6.70;;;2.90;;
13345;SDS011;6742;48.036;15.780;2023-04-05T05:13:03;8.90;;;3.60;;
13345;SDS011;6742;48.036;15.780;2023-04-05T05:15:30;6.83;;;3.60;;
13345;SDS011;6742;48.036;15.780;2023-04-05T05:17:57;8.77;;;3.67;;
13345;SDS011;6742;48.036;15.780;2023-04-05T05:20:24;6.53;;;3.83;;
13345;SDS011;6742;48.036;15.780;2023-04-05T05:22:52;5.90;;;3.70;;
13345;SDS011;6742;48.036;15.780;2023-04-05T05:25:19;7.23;;;3.80;;
13345;SDS011;6742;48.036;15.780;2023-04-05T05:27:47;7.40;;;4.40;;
13345;SDS011;6742;48.036;15.780;2023-04-05T05:30:16;7.27;;;3.90;;
13345;SDS011;6742;48.036;15.780;2023-04-05T05:32:44;9.23;;;4.07;;
13345;SDS011;6742;48.036;15.780;2023-04-05T05:35:11;6.53;;;4.03;;
13345;SDS011;6742;48.036;15.780;2023-04-05T05:37:38;13.97;;;6.10;;
13345;SDS011;6742;48.036;15.780;2023-04-05T05:40:05;11.93;;;5.97;;
13345;SDS011;6742;48.036;15.780;2023-04-05T05:42:34;15.77;;;5.10;;
13345;SDS011;6742;48.036;15.780;2023-04-05T05:45:02;7.03;;;3.73;;
13345;SDS011;6742;48.036;15.780;2023-04-05T05:47:32;11.67;;;4.07;;
13345;SDS011;6742;48.036;15.780;2023-04-05T05:49:59;9.77;;;3.60;;
13345;SDS011;6742;48.036;15.780;2023-04-05T05:52:25;6.40;;;3.93;;
13345;SDS011;6742;48.036;15.780;2023-04-05T05:54:52;8.90;;;2.90;;
13345;SDS011;6742;48.036;15.780;2023-04-05T05:57:19;5.53;;;2.80;;
13345;SDS011;6742;48.036;15.780;2023-04-05T05:59:47;7.97;;;3.20;;
13345;SDS011;6742;48.036;15.780;2023-04-05T06:02:14;7.27;;;3.37;;
13345;SDS011;6742;48.036;15.780;2023-04-05T06:04:42;10.50;;;3.53;;
13345;SDS011;6742;48.036;15.780;2023-04-05T06:07:09;7.83;;;3.60;;
13345;SDS011;6742;48.036;15.780;2023-04-05T06:09:36;6.07;;;3.20;;
13345;SDS011;6742;48.036;15.780;2023-04-05T06:12:03;6.63;;;3.38;;
13345;SDS011;6742;48.036;15.780;2023-04-05T06:14:30;5.80;;;3.97;;
13345;SDS011;6742;48.036;15.780;2023-04-05T06:16:57;7.23;;;3.63;;
13345;SDS011;6742;48.036;15.780;2023-04-05T06:19:24;7.40;;;3.37;;
13345;SDS011;6742;48.036;15.780;2023-04-05T06:21:53;6.47;;;3.67;;
13345;SDS011;6742;48.036;15.780;2023-04-05T06:24:20;6.27;;;3.30;;
13345;SDS011;6742;48.036;15.780;2023-04-05T06:26:48;6.90;;;3.77;;
13345;SDS011;6742;48.036;15.780;2023-04-05T06:29:15;6.80;;;3.50;;
13345;SDS011;6742;48.036;15.780;2023-04-05T06:31:42;5.50;;;3.20;;
13345;SDS011;6742;48.036;15.780;2023-04-05T06:34:10;6.17;;;3.63;;
13345;SDS011;6742;48.036;15.780;2023-04-05T06:36:37;5.33;;;3.90;;
13345;SDS011;6742;48.036;15.780;2023-04-05T06:39:05;7.00;;;3.70;;
13345;SDS011;6742;48.036;15.780;2023-04-05T06:41:32;7.83;;;4.47;;
13345;SDS011;6742;48.036;15.780;2023-04-05T06:43:59;5.03;;;3.78;;
13345;SDS011;6742;48.036;15.780;2023-04-05T06:46:27;6.50;;;3.95;;
13345;SDS011;6742;48.036;15.780;2023-04-05T06:48:54;5.35;;;3.97;;
13345;SDS011;6742;48.036;15.780;2023-04-05T06:51:21;6.43;;;3.83;;
13345;SDS011;6742;48.036;15.780;2023-04-05T06:53:49;6.18;;;4.05;;
13345;SDS011;6742;48.036;15.780;2023-04-05T06:56:17;6.30;;;3.63;;
13345;SDS011;6742;48.036;15.780;2023-04-05T06:58:44;6.05;;;3.90;;
13345;SDS011;6742;48.036;15.780;2023-04-05T07:01:11;7.47;;;3.50;;
13345;SDS011;6742;48.036;15.780;2023-04-05T07:03:38;7.32;;;3.30;;
13345;SDS011;6742;48.036;15.780;2023-04-05T07:06:05;4.53;;;2.90;;
13345;SDS011;6742;48.036;15.780;2023-04-05T07:08:33;4.28;;;2.83;;
13345;SDS011;6742;48.036;15.780;2023-04-05T07:11:00;3.25;;;2.47;;
13345;SDS011;6742;48.036;15.780;2023-04-05T07:13:29;4.20;;;2.80;;
13345;SDS011;6742;48.036;15.780;2023-04-05T07:15:59;2.75;;;2.30;;
13345;SDS011;6742;48.036;15.780;2023-04-05T07:18:27;2.50;;;1.80;;
13345;SDS011;6742;48.036;15.780;2023-04-05T07:20:55;3.50;;;1.92;;
13345;SDS011;6742;48.036;15.780;2023-04-05T07:23:26;5.13;;;2.45;;
13345;SDS011;6742;48.036;15.780;2023-04-05T07:25:53;2.83;;;2.00;;
13345;SDS011;6742;48.036;15.780;2023-04-05T07:28:20;2.70;;;2.00;;
13345;SDS011;6742;48.036;15.780;2023-04-05T07:30:49;3.03;;;1.98;;
13345;SDS011;6742;48.036;15.780;2023-04-05T07:33:17;2.67;;;1.92;;
13345;SDS011;6742;48.036;15.780;2023-04-05T07:35:45;4.82;;;2.47;;
13345;SDS011;6742;48.036;15.780;2023-04-05T07:38:17;3.40;;;2.00;;
13345;SDS011;6742;48.036;15.780;2023-04-05T07:40:44;2.47;;;2.00;;
13345;SDS011;6742;48.036;15.780;2023-04-05T07:43:13;3.75;;;2.20;;
13345;SDS011;6742;48.036;15.780;2023-04-05T07:45:39;2.55;;;1.98;;
13345;SDS011;6742;48.036;15.780;2023-04-05T07:48:08;3.78;;;1.88;;
13345;SDS011;6742;48.036;15.780;2023-04-05T07:50:35;5.22;;;2.25;;
13345;SDS011;6742;48.036;15.780;2023-04-05T07:53:04;4.07;;;2.10;;
13345;SDS011;6742;48.036;15.780;2023-04-05T07:55:32;3.22;;;1.80;;
13345;SDS011;6742;48.036;15.780;2023-04-05T07:57:59;4.50;;;1.98;;
13345;SDS011;6742;48.036;15.780;2023-04-05T08:00:26;3.33;;;1.98;;
13345;SDS011;6742;48.036;15.780;2023-04-05T08:02:53;3.83;;;2.08;;
13345;SDS011;6742;48.036;15.780;2023-04-05T08:05:21;3.60;;;2.75;;
13345;SDS011;6742;48.036;15.780;2023-04-05T08:07:48;3.58;;;1.98;;
13345;SDS011;6742;48.036;15.780;2023-04-05T08:10:15;2.42;;;2.00;;
13345;SDS011;6742;48.036;15.780;2023-04-05T08:12:42;3.95;;;2.35;;
13345;SDS011;6742;48.036;15.780;2023-04-05T08:15:09;3.33;;;2.03;;
13345;SDS011;6742;48.036;15.780;2023-04-05T08:17:36;2.95;;;2.35;;
13345;SDS011;6742;48.036;15.780;2023-04-05T08:20:03;3.73;;;2.20;;
13345;SDS011;6742;48.036;15.780;2023-04-05T08:22:32;3.63;;;1.97;;
13345;SDS011;6742;48.036;15.780;2023-04-05T08:24:59;2.35;;;1.90;;
13345;SDS011;6742;48.036;15.780;2023-04-05T08:27:28;3.00;;;1.90;;
13345;SDS011;6742;48.036;15.780;2023-04-05T08:29:56;2.50;;;1.70;;
13345;SDS011;6742;48.036;15.780;2023-04-05T08:32:22;3.80;;;1.83;;
13345;SDS011;6742;48.036;15.780;2023-04-05T08:34:49;3.60;;;2.20;;
13345;SDS011;6742;48.036;15.780;2023-04-05T08:37:16;3.88;;;2.00;;
13345;SDS011;6742;48.036;15.780;2023-04-05T08:39:44;7.25;;;2.05;;
13345;SDS011;6742;48.036;15.780;2023-04-05T08:42:13;2.83;;;2.00;;
13345;SDS011;6742;48.036;15.780;2023-04-05T08:44:42;2.73;;;1.93;;
13345;SDS011;6742;48.036;15.780;2023-04-05T08:47:13;3.43;;;2.70;;
13345;SDS011;6742;48.036;15.780;2023-04-05T08:49:44;4.03;;;1.80;;
13345;SDS011;6742;48.036;15.780;2023-04-05T08:52:12;3.58;;;2.00;;
13345;SDS011;6742;48.036;15.780;2023-04-05T08:54:40;2.85;;;1.88;;
13345;SDS011;6742;48.036;15.780;2023-04-05T08:57:08;2.78;;;1.50;;
13345;SDS011;6742;48.036;15.780;2023-04-05T08:59:36;3.60;;;2.00;;
13345;SDS011;6742;48.036;15.780;2023-04-05T09:02:07;2.33;;;1.50;;
13345;SDS011;6742;48.036;15.780;2023-04-05T09:04:41;2.05;;;1.60;;
13345;SDS011;6742;48.036;15.780;2023-04-05T09:07:10;2.70;;;1.67;;
13345;SDS011;6742;48.036;15.780;2023-04-05T09:09:38;4.20;;;2.03;;
13345;SDS011;6742;48.036;15.780;2023-04-05T09:12:12;2.92;;;1.90;;
13345;SDS011;6742;48.036;15.780;2023-04-05T09:14:40;3.90;;;2.25;;
13345;SDS011;6742;48.036;15.780;2023-04-05T09:17:07;1.92;;;1.55;;
13345;SDS011;6742;48.036;15.780;2023-04-05T09:19:34;2.55;;;1.67;;
13345;SDS011;6742;48.036;15.780;2023-04-05T09:22:02;2.72;;;1.90;;
13345;SDS011;6742;48.036;15.780;2023-04-05T09:24:31;2.92;;;1.85;;
13345;SDS011;6742;48.036;15.780;2023-04-05T09:27:04;2.70;;;1.58;;
13345;SDS011;6742;48.036;15.780;2023-04-05T09:29:34;5.20;;;1.80;;
13345;SDS011;6742;48.036;15.780;2023-04-05T09:32:01;2.47;;;1.70;;
13345;SDS011;6742;48.036;15.780;2023-04-05T09:34:29;3.85;;;2.17;;
13345;SDS011;6742;48.036;15.780;2023-04-05T09:36:57;3.15;;;1.90;;
13345;SDS011;6742;48.036;15.780;2023-04-05T09:39:28;3.88;;;1.90;;
13345;SDS011;6742;48.036;15.780;2023-04-05T09:42:06;3.28;;;1.90;;
13345;SDS011;6742;48.036;15.780;2023-04-05T09:44:53;1.92;;;1.42;;
13345;SDS011;6742;48.036;15.780;2023-04-05T09:47:22;2.28;;;1.52;;
13345;SDS011;6742;48.036;15.780;2023-04-05T09:49:51;2.25;;;1.77;;
13345;SDS011;6742;48.036;15.780;2023-04-05T09:52:22;2.97;;;1.83;;
13345;SDS011;6742;48.036;15.780;2023-04-05T09:54:50;3.42;;;1.67;;
13345;SDS011;6742;48.036;15.780;2023-04-05T09:57:20;2.80;;;1.90;;
13345;SDS011;6742;48.036;15.780;2023-04-05T09:59:48;3.10;;;1.80;;
13345;SDS011;6742;48.036;15.780;2023-04-05T10:02:17;2.50;;;1.80;;
13345;SDS011;6742;48.036;15.780;2023-04-05T10:04:45;3.58;;;2.00;;
13345;SDS011;6742;48.036;15.780;2023-04-05T10:07:12;2.80;;;2.00;;
13345;SDS011;6742;48.036;15.780;2023-04-05T10:09:40;3.58;;;1.83;;
13345;SDS011;6742;48.036;15.780;2023-04-05T10:12:09;3.42;;;1.52;;
13345;SDS011;6742;48.036;15.780;2023-04-05T10:14:39;2.08;;;1.70;;
13345;SDS011;6742;48.036;15.780;2023-04-05T10:17:10;3.30;;;1.80;;
13345;SDS011;6742;48.036;15.780;2023-04-05T10:19:49;4.03;;;1.98;;
13345;SDS011;6742;48.036;15.780;2023-04-05T10:22:23;2.35;;;1.73;;
13345;SDS011;6742;48.036;15.780;2023-04-05T10:24:56;3.40;;;1.98;;
13345;SDS011;6742;48.036;15.780;2023-04-05T10:27:29;2.03;;;1.70;;
13345;SDS011;6742;48.036;15.780;2023-04-05T10:30:02;2.60;;;2.10;;
13345;SDS011;6742;48.036;15.780;2023-04-05T10:32:50;2.65;;;2.00;;
13345;SDS011;6742;48.036;15.780;2023-04-05T10:35:30;4.57;;;2.38;;
13345;SDS011;6742;48.036;15.780;2023-04-05T10:38:09;3.60;;;1.90;;
13345;SDS011;6742;48.036;15.780;2023-04-05T10:40:42;3.28;;;1.83;;
13345;SDS011;6742;48.036;15.780;2023-04-05T10:43:14;4.40;;;1.90;;
13345;SDS011;6742;48.036;15.780;2023-04-05T10:45:44;2.47;;;1.98;;
13345;SDS011;6742;48.036;15.780;2023-04-05T10:48:15;3.10;;;1.65;;
13345;SDS011;6742;48.036;15.780;2023-04-05T10:50:48;1.98;;;1.67;;
13345;SDS011;6742;48.036;15.780;2023-04-05T10:53:15;2.72;;;1.60;;
13345;SDS011;6742;48.036;15.780;2023-04-05T10:55:43;3.38;;;2.03;;
13345;SDS011;6742;48.036;15.780;2023-04-05T10:58:11;4.47;;;2.92;;
13345;SDS011;6742;48.036;15.780;2023-04-05T11:00:40;3.67;;;1.80;;
13345;SDS011;6742;48.036;15.780;2023-04-05T11:03:07;2.13;;;1.77;;
13345;SDS011;6742;48.036;15.780;2023-04-05T11:05:34;3.50;;;1.90;;
13345;SDS011;6742;48.036;15.780;2023-04-05T11:08:04;4.35;;;2.22;;
13345;SDS011;6742;48.036;15.780;2023-04-05T11:10:35;3.13;;;2.10;;
13345;SDS011;6742;48.036;15.780;2023-04-05T11:13:09;2.30;;;1.70;;
13345;SDS011;6742;48.036;15.780;2023-04-05T11:15:36;2.47;;;1.90;;
13345;SDS011;6742;48.036;15.780;2023-04-05T11:18:04;3.08;;;1.83;;
13345;SDS011;6742;48.036;15.780;2023-04-05T11:20:43;2.17;;;1.77;;
13345;SDS011;6742;48.036;15.780;2023-04-05T11:23:13;5.43;;;2.20;;
13345;SDS011;6742;48.036;15.780;2023-04-05T11:25:46;5.32;;;2.10;;
13345;SDS011;6742;48.036;15.780;2023-04-05T11:28:22;2.13;;;1.70;;
13345;SDS011;6742;48.036;15.780;2023-04-05T11:30:51;2.87;;;2.00;;
13345;SDS011;6742;48.036;15.780;2023-04-05T11:36:30;3.85;;;2.22;;
13345;SDS011;6742;48.036;15.780;2023-04-05T11:41:53;4.03;;;1.70;;
13345;SDS011;6742;48.036;15.780;2023-04-05T11:44:21;2.92;;;1.90;;
13345;SDS011;6742;48.036;15.780;2023-04-05T11:46:49;3.45;;;2.20;;
13345;SDS011;6742;48.036;15.780;2023-04-05T11:49:16;3.97;;;1.98;;
13345;SDS011;6742;48.036;15.780;2023-04-05T11:51:44;4.53;;;2.22;;
13345;SDS011;6742;48.036;15.780;2023-04-05T11:54:13;2.33;;;1.75;;
13345;SDS011;6742;48.036;15.780;2023-04-05T11:56:54;3.38;;;1.98;;
13345;SDS011;6742;48.036;15.780;2023-04-05T11:59:26;3.38;;;2.20;;
13345;SDS011;6742;48.036;15.780;2023-04-05T12:01:56;3.38;;;2.00;;
13345;SDS011;6742;48.036;15.780;2023-04-05T12:04:24;3.00;;;2.05;;
13345;SDS011;6742;48.036;15.780;2023-04-05T12:09:33;3.42;;;2.35;;
13345;SDS011;6742;48.036;15.780;2023-04-05T12:12:01;2.63;;;1.80;;
13345;SDS011;6742;48.036;15.780;2023-04-05T12:14:28;4.15;;;1.83;;
13345;SDS011;6742;48.036;15.780;2023-04-05T12:16:57;2.75;;;1.90;;
13345;SDS011;6742;48.036;15.780;2023-04-05T12:19:24;3.75;;;1.92;;
13345;SDS011;6742;48.036;15.780;2023-04-05T12:21:55;2.65;;;2.00;;
13345;SDS011;6742;48.036;15.780;2023-04-05T12:24:22;4.43;;;2.33;;
13345;SDS011;6742;48.036;15.780;2023-04-05T12:26:50;5.32;;;2.13;;
13345;SDS011;6742;48.036;15.780;2023-04-05T12:29:18;2.50;;;1.80;;
13345;SDS011;6742;48.036;15.780;2023-04-05T12:31:45;4.15;;;2.47;;
13345;SDS011;6742;48.036;15.780;2023-04-05T12:34:15;5.32;;;2.40;;
13345;SDS011;6742;48.036;15.780;2023-04-05T12:36:49;3.25;;;2.20;;
13345;SDS011;6742;48.036;15.780;2023-04-05T12:39:17;3.50;;;2.20;;
13345;SDS011;6742;48.036;15.780;2023-04-05T12:41:54;3.58;;;2.30;;
13345;SDS011;6742;48.036;15.780;2023-04-05T12:44:28;5.13;;;2.47;;
13345;SDS011;6742;48.036;15.780;2023-04-05T12:46:58;3.40;;;2.10;;
13345;SDS011;6742;48.036;15.780;2023-04-05T12:49:27;3.38;;;2.00;;
13345;SDS011;6742;48.036;15.780;2023-04-05T12:51:54;2.83;;;2.05;;
13345;SDS011;6742;48.036;15.780;2023-04-05T12:54:27;2.47;;;1.92;;
13345;SDS011;6742;48.036;15.780;2023-04-05T12:56:55;4.07;;;2.10;;
13345;SDS011;6742;48.036;15.780;2023-04-05T12:59:22;3.40;;;2.03;;
13345;SDS011;6742;48.036;15.780;2023-04-05T13:01:51;3.20;;;2.00;;
13345;SDS011;6742;48.036;15.780;2023-04-05T13:04:18;2.97;;;2.00;;
13345;SDS011;6742;48.036;15.780;2023-04-05T13:06:47;2.90;;;2.03;;
13345;SDS011;6742;48.036;15.780;2023-04-05T13:09:14;2.80;;;2.10;;
13345;SDS011;6742;48.036;15.780;2023-04-05T13:11:41;3.50;;;2.08;;
13345;SDS011;6742;48.036;15.780;2023-04-05T13:14:08;3.72;;;1.90;;
13345;SDS011;6742;48.036;15.780;2023-04-05T13:16:35;2.67;;;2.00;;
13345;SDS011;6742;48.036;15.780;2023-04-05T13:19:03;3.85;;;2.25;;
13345;SDS011;6742;48.036;15.780;2023-04-05T13:21:30;5.20;;;2.40;;
13345;SDS011;6742;48.036;15.780;2023-04-05T13:23:57;3.20;;;2.10;;
13345;SDS011;6742;48.036;15.780;2023-04-05T13:26:24;2.08;;;1.77;;
13345;SDS011;6742;48.036;15.780;2023-04-05T13:28:51;2.63;;;2.20;;
13345;SDS011;6742;48.036;15.780;2023-04-05T13:31:18;2.55;;;1.90;;
13345;SDS011;6742;48.036;15.780;2023-04-05T13:33:45;3.47;;;2.38;;
13345;SDS011;6742;48.036;15.780;2023-04-05T13:36:13;5.00;;;2.55;;
13345;SDS011;6742;48.036;15.780;2023-04-05T13:38:40;3.03;;;2.17;;
13345;SDS011;6742;48.036;15.780;2023-04-05T13:41:07;3.10;;;2.08;;
13345;SDS011;6742;48.036;15.780;2023-04-05T13:43:34;4.25;;;1.95;;
13345;SDS011;6742;48.036;15.780;2023-04-05T13:46:01;4.90;;;2.53;;
13345;SDS011;6742;48.036;15.780;2023-04-05T13:48:28;5.03;;;2.20;;
13345;SDS011;6742;48.036;15.780;2023-04-05T13:50:55;4.28;;;2.28;;
13345;SDS011;6742;48.036;15.780;2023-04-05T13:53:23;2.95;;;2.00;;
13345;SDS011;6742;48.036;15.780;2023-04-05T13:55:50;2.58;;;1.80;;
13345;SDS011;6742;48.036;15.780;2023-04-05T13:58:17;3.10;;;1.90;;
13345;SDS011;6742;48.036;15.780;2023-04-05T14:00:44;3.00;;;2.33;;
13345;SDS011;6742;48.036;15.780;2023-04-05T14:03:11;3.55;;;2.22;;
13345;SDS011;6742;48.036;15.780;2023-04-05T14:05:38;4.40;;;2.00;;
13345;SDS011;6742;48.036;15.780;2023-04-05T14:08:05;3.10;;;2.10;;
13345;SDS011;6742;48.036;15.780;2023-04-05T14:10:33;2.40;;;2.08;;
13345;SDS011;6742;48.036;15.780;2023-04-05T14:13:00;3.15;;;2.00;;
13345;SDS011;6742;48.036;15.780;2023-04-05T14:15:27;2.38;;;1.95;;
13345;SDS011;6742;48.036;15.780;2023-04-05T14:17:55;3.80;;;1.90;;
13345;SDS011;6742;48.036;15.780;2023-04-05T14:20:22;2.60;;;2.00;;
13345;SDS011;6742;48.036;15.780;2023-04-05T14:22:49;3.30;;;1.88;;
13345;SDS011;6742;48.036;15.780;2023-04-05T14:25:16;3.38;;;2.03;;
13345;SDS011;6742;48.036;15.780;2023-04-05T14:27:44;3.33;;;2.10;;
13345;SDS011;6742;48.036;15.780;2023-04-05T14:30:12;2.58;;;1.80;;
13345;SDS011;6742;48.036;15.780;2023-04-05T14:32:39;3.10;;;1.90;;
13345;SDS011;6742;48.036;15.780;2023-04-05T14:35:08;4.35;;;1.70;;
13345;SDS011;6742;48.036;15.780;2023-04-05T14:37:35;3.47;;;2.20;;
13345;SDS011;6742;48.036;15.780;2023-04-05T14:40:02;2.75;;;2.33;;
13345;SDS011;6742;48.036;15.780;2023-04-05T14:42:29;4.90;;;1.92;;
13345;SDS011;6742;48.036;15.780;2023-04-05T14:44:58;3.67;;;2.20;;
13345;SDS011;6742;48.036;15.780;2023-04-05T14:47:25;2.20;;;1.80;;
13345;SDS011;6742;48.036;15.780;2023-04-05T14:49:52;3.55;;;1.85;;
13345;SDS011;6742;48.036;15.780;2023-04-05T14:52:19;2.65;;;2.20;;
13345;SDS011;6742;48.036;15.780;2023-04-05T14:54:49;3.03;;;2.17;;
13345;SDS011;6742;48.036;15.780;2023-04-05T14:57:16;2.78;;;1.92;;
13345;SDS011;6742;48.036;15.780;2023-04-05T14:59:43;6.65;;;3.67;;
13345;SDS011;6742;48.036;15.780;2023-04-05T15:02:12;3.53;;;2.67;;
13345;SDS011;6742;48.036;15.780;2023-04-05T15:04:39;6.32;;;3.58;;